Saint Ignace, Michigan
Current Conditions -  °F | °C
As of 4:56 AM on Wednesday 26 Nov 2014 (Local Time) from KMCD Reporting Station
Overcast Overcast  
Wind Chill: 20°   Ceiling: 3100
Heat Index: 25°   Visibility: 10mi
Dew Point: 22°   Wind: 5mph
Humidity: 86%   Direction: 80°E
Pressure: 30.17"   Gusts: NA
Location:  45.87°N, 84.73°W
Report Text: KMCD 260956Z AUTO 08004KT 10SM OVC031 M04/M06 A3017 RMK AO2 T10371058
Loading
Personal Weather Stations






























Interactive Weather Map New forecast layout! Learn more

10-Day Weather Forecast

Advertisements
Track Severe Weather on mobile